createdAt,value
2023-04-14T00:02:21.340Z,5.53
2023-04-14T00:04:54.877Z,6.13
2023-04-14T00:07:24.753Z,7.53
2023-04-14T00:09:54.606Z,5.68
2023-04-14T00:12:27.118Z,8.55
2023-04-14T00:14:56.983Z,8.02
2023-04-14T00:17:26.910Z,6.80
2023-04-14T00:19:56.859Z,8.35
2023-04-14T00:22:27.172Z,10.52
2023-04-14T00:24:57.060Z,5.03
2023-04-14T00:27:29.654Z,5.55
2023-04-14T00:29:59.651Z,6.70
2023-04-14T00:32:29.609Z,5.97
2023-04-14T00:35:00.328Z,5.63
2023-04-14T00:37:30.184Z,6.55
2023-04-14T00:40:00.140Z,5.32
2023-04-14T00:42:32.705Z,6.70
2023-04-14T00:45:02.565Z,5.47
2023-04-14T00:47:32.980Z,9.88
2023-04-14T00:50:03.888Z,11.90
2023-04-14T00:52:34.621Z,9.68
2023-04-14T00:55:05.740Z,7.15
2023-04-14T00:57:38.542Z,9.43
2023-04-14T01:00:09.894Z,6.60
2023-04-14T01:02:39.900Z,9.38
2023-04-14T01:05:10.556Z,10.55
2023-04-14T01:07:40.909Z,11.13
2023-04-14T01:10:11.759Z,9.38
2023-04-14T01:13:08.974Z,10.38
2023-04-14T01:15:42.759Z,10.40
2023-04-14T01:18:19.885Z,10.10
2023-04-14T01:20:54.374Z,10.23
2023-04-14T01:23:28.617Z,10.45
2023-04-14T01:26:18.440Z,9.40
2023-04-14T01:29:27.599Z,11.38
2023-04-14T01:32:05.713Z,9.98
2023-04-14T01:34:40.477Z,9.27
2023-04-14T01:37:13.873Z,8.55
2023-04-14T01:39:47.788Z,9.88
2023-04-14T01:42:21.861Z,11.25
2023-04-14T01:44:54.914Z,9.15
2023-04-14T01:47:28.723Z,11.38
2023-04-14T01:50:00.166Z,10.38
2023-04-14T01:52:32.601Z,12.27
2023-04-14T01:55:09.952Z,9.88
2023-04-14T01:57:41.765Z,10.00
2023-04-14T02:00:13.871Z,9.77
2023-04-14T02:02:49.506Z,8.63
2023-04-14T02:05:21.385Z,11.02
2023-04-14T02:07:54.210Z,11.02
2023-04-14T02:10:26.281Z,12.02
2023-04-14T02:12:59.334Z,14.65
2023-04-14T02:15:29.479Z,12.88
2023-04-14T02:18:03.461Z,12.38
2023-04-14T02:20:33.463Z,13.88
2023-04-14T02:23:03.840Z,12.68
2023-04-14T02:25:36.500Z,10.00
2023-04-14T02:28:09.717Z,9.55
2023-04-14T02:30:42.202Z,11.80
2023-04-14T02:33:19.532Z,10.00
2023-04-14T02:35:51.308Z,14.10
2023-04-14T02:38:25.498Z,13.30
2023-04-14T02:40:55.436Z,14.52
2023-04-14T02:43:32.227Z,6.97
2023-04-14T02:46:04.690Z,12.38
2023-04-14T02:48:38.642Z,14.55
2023-04-14T02:51:09.939Z,13.02
2023-04-14T02:53:40.168Z,12.45
2023-04-14T02:56:10.995Z,8.95
2023-04-14T02:58:42.066Z,11.38
2023-04-14T03:01:12.562Z,13.77
2023-04-14T03:03:45.275Z,11.02
2023-04-14T03:06:16.476Z,8.02
2023-04-14T03:08:47.603Z,7.60
2023-04-14T03:11:18.316Z,10.52
2023-04-14T03:13:49.517Z,16.73
2023-04-14T03:16:23.502Z,11.38
2023-04-14T03:18:57.144Z,8.80
2023-04-14T03:21:28.441Z,13.57
2023-04-14T03:23:59.325Z,11.65
2023-04-14T03:26:31.504Z,9.27
2023-04-14T03:29:03.635Z,10.05
2023-04-14T03:31:37.106Z,10.30
2023-04-14T03:34:11.200Z,11.13
2023-04-14T03:36:42.469Z,11.43
2023-04-14T03:39:14.805Z,6.57
2023-04-14T03:41:48.721Z,13.90
2023-04-14T03:44:20.899Z,11.48
2023-04-14T03:46:51.051Z,8.50
2023-04-14T03:49:25.873Z,6.72
2023-04-14T03:52:01.652Z,10.70
2023-04-14T03:54:34.844Z,12.80
2023-04-14T03:57:07.789Z,9.30
2023-04-14T03:59:39.353Z,10.98
2023-04-14T04:02:10.496Z,9.32
2023-04-14T04:04:44.268Z,8.27
2023-04-14T04:07:16.128Z,12.05
2023-04-14T04:09:48.707Z,7.28
2023-04-14T04:12:22.469Z,15.05
2023-04-14T04:14:52.455Z,13.88
2023-04-14T04:17:26.785Z,11.13
2023-04-14T04:20:02.185Z,11.07
2023-04-14T04:22:34.194Z,11.20
2023-04-14T04:25:04.400Z,9.25
2023-04-14T04:27:34.690Z,9.05
2023-04-14T04:30:04.959Z,8.82
2023-04-14T04:32:34.877Z,12.30
2023-04-14T04:35:09.024Z,11.80
2023-04-14T04:37:40.561Z,12.98
2023-04-14T04:40:11.892Z,14.93
2023-04-14T04:42:45.163Z,11.50
2023-04-14T04:45:15.769Z,10.25
2023-04-14T04:47:45.710Z,13.88
2023-04-14T04:50:19.136Z,14.60
2023-04-14T04:52:49.131Z,11.48
2023-04-14T04:55:19.162Z,12.38
2023-04-14T04:57:48.983Z,10.68
2023-04-14T05:00:19.686Z,9.90
2023-04-14T05:02:49.622Z,8.88
2023-04-14T05:05:22.229Z,15.30
2023-04-14T05:07:52.142Z,14.63
2023-04-14T05:10:22.965Z,11.57
2023-04-14T05:12:52.809Z,14.63
2023-04-14T05:15:22.682Z,11.48
2023-04-14T05:17:52.582Z,11.38
2023-04-14T05:20:25.316Z,15.13
2023-04-14T05:22:55.615Z,11.25
2023-04-14T05:25:25.458Z,10.77
2023-04-14T05:27:55.259Z,11.07
2023-04-14T05:30:25.133Z,12.10
2023-04-14T05:32:55.095Z,12.70
2023-04-14T05:35:27.735Z,13.35
2023-04-14T05:37:57.597Z,9.38
2023-04-14T05:40:28.431Z,8.68
2023-04-14T05:42:58.288Z,9.77
2023-04-14T05:45:28.196Z,12.05
2023-04-14T05:47:58.403Z,7.57
2023-04-14T05:50:31.198Z,9.93
2023-04-14T05:53:01.165Z,10.02
2023-04-14T05:55:31.153Z,8.27
2023-04-14T05:58:01.219Z,10.32
2023-04-14T06:00:31.726Z,7.25
2023-04-14T06:03:01.770Z,12.10
2023-04-14T06:05:34.926Z,8.88
2023-04-14T06:08:04.773Z,8.63
2023-04-14T06:10:35.711Z,6.55
2023-04-14T06:13:05.620Z,9.63
2023-04-14T06:15:35.504Z,10.27
2023-04-14T06:18:05.407Z,5.78
2023-04-14T06:20:38.249Z,9.07
2023-04-14T06:23:08.278Z,6.50
2023-04-14T06:25:38.159Z,6.40
2023-04-14T06:28:08.053Z,7.38
2023-04-14T06:30:37.872Z,9.38
2023-04-14T06:33:08.204Z,8.13
2023-04-14T06:35:40.873Z,6.53
2023-04-14T06:38:10.811Z,5.95
2023-04-14T06:40:40.678Z,6.43
2023-04-14T06:43:12.595Z,5.40
2023-04-14T06:45:42.496Z,5.97
2023-04-14T06:48:13.380Z,7.50
2023-04-14T06:50:45.906Z,6.70
2023-04-14T06:53:15.822Z,11.65
2023-04-14T06:55:45.989Z,6.43
2023-04-14T06:58:15.951Z,6.25
2023-04-14T07:00:45.819Z,5.00
2023-04-14T07:03:15.777Z,6.25
2023-04-14T07:05:48.230Z,6.15
2023-04-14T07:08:18.175Z,7.22
2023-04-14T07:10:48.061Z,7.65
2023-04-14T07:13:20.606Z,7.07
2023-04-14T07:15:50.586Z,5.47
2023-04-14T07:18:20.609Z,7.32
2023-04-14T07:20:54.288Z,5.78
2023-04-14T07:23:24.211Z,10.53
2023-04-14T07:25:54.794Z,4.88
2023-04-14T07:28:25.125Z,5.10
2023-04-14T07:30:55.538Z,7.97
2023-04-14T07:33:27.197Z,3.97
2023-04-14T07:36:03.415Z,5.93
2023-04-14T07:38:33.841Z,8.80
2023-04-14T07:41:06.997Z,6.90
2023-04-14T07:43:38.843Z,4.75
2023-04-14T07:46:10.942Z,5.53
2023-04-14T07:48:41.796Z,9.43
2023-04-14T07:51:14.408Z,9.88
2023-04-14T07:53:45.421Z,10.43
2023-04-14T07:56:15.704Z,4.03
2023-04-14T07:58:45.790Z,7.25
2023-04-14T08:01:15.857Z,5.30
2023-04-14T08:03:46.253Z,5.00
2023-04-14T08:06:19.198Z,3.97
2023-04-14T08:08:49.051Z,6.13
2023-04-14T08:11:18.901Z,9.07
2023-04-14T08:13:49.934Z,4.53
2023-04-14T08:16:19.870Z,6.75
2023-04-14T08:18:49.900Z,6.80
2023-04-14T08:21:22.345Z,8.75
2023-04-14T08:23:52.703Z,9.57
2023-04-14T08:26:22.918Z,9.23
2023-04-14T08:28:52.760Z,7.32
2023-04-14T08:31:25.192Z,10.10
2023-04-14T08:33:55.613Z,12.43
2023-04-14T08:36:28.110Z,8.63
2023-04-14T08:38:58.192Z,6.65
2023-04-14T08:41:29.416Z,12.88
2023-04-14T08:43:59.300Z,8.45
2023-04-14T08:46:30.402Z,10.20
2023-04-14T08:49:06.919Z,7.72
2023-04-14T08:51:45.507Z,8.00
2023-04-14T08:54:16.443Z,8.85
2023-04-14T08:56:46.390Z,8.07
2023-04-14T08:59:16.344Z,11.30
2023-04-14T09:01:46.781Z,4.65
2023-04-14T09:04:17.894Z,10.93
2023-04-14T09:06:50.451Z,4.38
2023-04-14T09:09:21.782Z,8.02
2023-04-14T09:11:52.555Z,3.80
2023-04-14T09:14:23.473Z,6.20
2023-04-14T09:16:55.014Z,8.40
2023-04-14T09:19:25.704Z,5.75
2023-04-14T09:21:58.666Z,11.45
2023-04-14T09:24:34.185Z,7.80
2023-04-14T09:27:06.924Z,10.52
2023-04-14T09:29:37.498Z,8.90
2023-04-14T09:32:07.997Z,4.43
2023-04-14T09:34:38.070Z,5.03
2023-04-14T09:37:12.678Z,5.95
2023-04-14T09:39:51.766Z,7.65
2023-04-14T09:42:22.031Z,5.13
2023-04-14T09:44:56.425Z,7.82
2023-04-14T09:49:59.771Z,6.90
2023-04-14T09:52:46.948Z,7.30
2023-04-14T09:55:18.623Z,5.70
2023-04-14T09:57:51.908Z,7.10
2023-04-14T10:00:24.745Z,8.75
2023-04-14T10:02:56.513Z,6.88
2023-04-14T10:05:32.163Z,5.85
2023-04-14T10:08:08.655Z,8.20
2023-04-14T10:10:38.675Z,4.88
2023-04-14T10:13:08.496Z,5.40
2023-04-14T10:15:39.158Z,4.90
2023-04-14T10:18:09.186Z,4.35
2023-04-14T10:20:39.910Z,7.18
2023-04-14T10:23:12.444Z,5.50
2023-04-14T10:25:42.640Z,4.55
2023-04-14T10:28:12.658Z,5.78
2023-04-14T10:30:43.684Z,7.28
2023-04-14T10:33:13.812Z,7.72
2023-04-14T10:35:48.097Z,8.02
2023-04-14T10:38:20.699Z,6.15
2023-04-14T10:40:51.108Z,9.25
2023-04-14T10:43:21.568Z,7.80
2023-04-14T10:45:58.149Z,4.95
2023-04-14T10:48:28.751Z,7.60
2023-04-14T10:51:01.850Z,6.90
2023-04-14T10:53:41.452Z,7.05
2023-04-14T10:56:11.621Z,9.73
2023-04-14T10:58:41.726Z,6.40
2023-04-14T11:01:28.755Z,8.52
2023-04-14T11:03:58.964Z,3.72
2023-04-14T11:06:58.979Z,6.63
2023-04-14T11:09:37.292Z,5.07
2023-04-14T11:12:21.419Z,9.93
2023-04-14T11:14:51.602Z,4.15
2023-04-14T11:17:23.933Z,7.00
2023-04-14T11:19:57.397Z,4.78
2023-04-14T11:22:44.000Z,4.63
2023-04-14T11:25:17.915Z,5.95
2023-04-14T11:27:49.218Z,7.00
2023-04-14T11:30:20.339Z,4.90
2023-04-14T11:32:51.868Z,6.43
2023-04-14T11:35:22.244Z,7.57
2023-04-14T11:37:55.891Z,7.63
2023-04-14T11:40:29.401Z,5.25
2023-04-14T11:43:00.829Z,7.53
2023-04-14T11:45:31.932Z,4.85
2023-04-14T11:48:03.394Z,5.28
2023-04-14T11:50:36.017Z,4.68
2023-04-14T11:53:10.725Z,3.22
2023-04-14T11:55:45.373Z,7.45
2023-04-14T11:58:16.029Z,7.78
2023-04-14T12:00:46.274Z,3.95
2023-04-14T12:03:16.257Z,3.83
2023-04-14T12:05:46.831Z,5.90
2023-04-14T12:08:16.878Z,5.60
2023-04-14T12:10:49.289Z,4.45
2023-04-14T12:13:19.208Z,9.07
2023-04-14T12:15:49.151Z,5.43
2023-04-14T12:21:11.767Z,4.20
2023-04-14T12:23:42.564Z,5.15
2023-04-14T12:26:15.646Z,5.18
2023-04-14T12:28:45.582Z,5.20
2023-04-14T12:31:16.132Z,4.38
2023-04-14T12:33:47.497Z,4.32
2023-04-14T12:36:17.353Z,5.55
2023-04-14T12:38:50.842Z,5.00
2023-04-14T12:41:28.421Z,5.53
2023-04-14T12:43:58.360Z,4.07
2023-04-14T12:46:29.516Z,5.18
2023-04-14T12:48:59.713Z,4.60
2023-04-14T12:51:29.988Z,6.65
2023-04-14T12:54:09.596Z,4.35
2023-04-14T12:56:44.711Z,6.75
2023-04-14T12:59:15.452Z,4.18
2023-04-14T13:01:45.416Z,4.28
2023-04-14T13:04:15.355Z,5.00
2023-04-14T13:06:45.318Z,2.97
2023-04-14T13:09:15.199Z,4.45
2023-04-14T13:11:47.652Z,6.00
2023-04-14T13:14:17.510Z,3.08
2023-04-14T13:16:47.401Z,3.10
2023-04-14T13:19:17.337Z,6.35
2023-04-14T13:21:47.157Z,4.75
2023-04-14T13:24:16.976Z,5.20
2023-04-14T13:26:49.673Z,4.68
2023-04-14T13:29:19.701Z,4.13
2023-04-14T13:31:49.649Z,4.00
2023-04-14T13:34:19.493Z,3.25
2023-04-14T13:36:49.467Z,6.57
2023-04-14T13:39:19.582Z,4.30
2023-04-14T13:41:52.353Z,4.82
2023-04-14T13:44:22.175Z,4.43
2023-04-14T13:46:54.240Z,3.53
2023-04-14T13:49:24.532Z,4.35
2023-04-14T13:51:54.537Z,6.22
2023-04-14T13:54:24.385Z,2.72
2023-04-14T13:56:56.905Z,2.58
2023-04-14T13:59:27.989Z,4.80
2023-04-14T14:01:58.018Z,3.63
2023-04-14T14:04:28.055Z,3.78
2023-04-14T14:06:57.946Z,5.30
2023-04-14T14:09:27.889Z,3.90
2023-04-14T14:12:00.269Z,3.67
2023-04-14T14:14:30.145Z,4.45
2023-04-14T14:16:59.974Z,3.70
2023-04-14T14:19:29.867Z,4.43
2023-04-14T14:21:59.690Z,5.07
2023-04-14T14:24:30.267Z,2.40
2023-04-14T14:27:03.215Z,4.38
2023-04-14T14:29:35.037Z,4.22
2023-04-14T14:32:05.166Z,2.42
2023-04-14T14:34:34.997Z,6.78
2023-04-14T14:37:04.864Z,3.83
2023-04-14T14:39:34.889Z,2.47
2023-04-14T14:42:07.521Z,3.17
2023-04-14T14:44:37.392Z,2.70
2023-04-14T14:47:07.421Z,7.75
2023-04-14T14:49:39.339Z,6.93
2023-04-14T14:52:13.321Z,2.97
2023-04-14T14:54:43.078Z,3.90
2023-04-14T14:57:15.509Z,4.80
2023-04-14T14:59:45.456Z,4.93
2023-04-14T15:02:15.343Z,3.90
2023-04-14T15:04:45.430Z,3.95
2023-04-14T15:07:15.527Z,3.83
2023-04-14T15:09:45.641Z,5.53
2023-04-14T15:12:18.316Z,2.47
2023-04-14T15:14:48.507Z,3.20
2023-04-14T15:17:18.397Z,5.35
2023-04-14T15:19:48.492Z,2.78
2023-04-14T15:22:18.550Z,2.67
2023-04-14T15:24:48.447Z,2.17
2023-04-14T15:27:20.872Z,2.65
2023-04-14T15:29:51.644Z,2.08
2023-04-14T15:32:25.304Z,2.28
2023-04-14T15:34:56.116Z,3.78
2023-04-14T15:37:26.290Z,6.70
2023-04-14T15:39:56.259Z,4.55
2023-04-14T15:42:28.753Z,4.85
2023-04-14T15:44:58.590Z,2.75
2023-04-14T15:47:28.708Z,3.53
2023-04-14T15:50:05.743Z,3.25
2023-04-14T15:52:40.997Z,3.55
2023-04-14T15:55:12.664Z,2.08
2023-04-14T15:57:45.095Z,2.88
2023-04-14T16:00:16.586Z,2.13
2023-04-14T16:02:47.050Z,4.05
2023-04-14T16:05:17.043Z,2.88
2023-04-14T16:07:47.411Z,3.13
2023-04-14T16:10:17.596Z,2.92
2023-04-14T16:12:50.538Z,2.67
2023-04-14T16:15:20.556Z,4.20
2023-04-14T16:17:51.291Z,3.72
2023-04-14T16:20:21.614Z,3.45
2023-04-14T16:22:52.567Z,3.70
2023-04-14T16:25:23.921Z,2.58
2023-04-14T16:27:56.508Z,2.70
2023-04-14T16:30:26.387Z,2.88
2023-04-14T16:32:57.112Z,2.42
2023-04-14T16:35:27.053Z,4.78
2023-04-14T16:37:57.020Z,2.58
2023-04-14T16:40:26.944Z,2.85
2023-04-14T16:42:59.354Z,4.38
2023-04-14T16:45:29.188Z,4.40
2023-04-14T16:47:59.121Z,4.30
2023-04-14T16:50:29.688Z,4.07
2023-04-14T16:52:59.609Z,4.90
2023-04-14T16:55:29.487Z,5.30
2023-04-14T16:58:02.352Z,3.38
2023-04-14T17:00:32.301Z,3.28
2023-04-14T17:03:02.429Z,3.00
2023-04-14T17:05:32.590Z,3.60
2023-04-14T17:08:03.729Z,4.55
2023-04-14T17:10:33.548Z,4.90
2023-04-14T17:13:05.925Z,4.03
2023-04-14T17:15:35.792Z,3.70
2023-04-14T17:18:06.095Z,1.20
2023-04-14T17:20:35.969Z,3.63
2023-04-14T17:23:06.129Z,3.08
2023-04-14T17:25:38.082Z,2.65
2023-04-14T17:28:10.528Z,6.32
2023-04-14T17:30:40.752Z,3.15
2023-04-14T17:33:11.832Z,2.33
2023-04-14T17:35:41.736Z,1.60
2023-04-14T17:38:11.628Z,3.22
2023-04-14T17:40:41.686Z,4.13
2023-04-14T17:43:14.108Z,4.10
2023-04-14T17:45:46.149Z,5.15
2023-04-14T17:48:15.990Z,3.75
2023-04-14T17:50:46.464Z,2.33
2023-04-14T17:53:17.092Z,4.78
2023-04-14T17:55:46.954Z,5.60
2023-04-14T17:58:19.392Z,1.85
2023-04-14T18:00:49.584Z,3.17
2023-04-14T18:03:19.529Z,3.83
2023-04-14T18:05:49.420Z,5.28
2023-04-14T18:08:19.360Z,4.10
2023-04-14T18:10:49.236Z,2.45
2023-04-14T18:13:21.839Z,4.70
2023-04-14T18:15:52.478Z,2.90
2023-04-14T18:18:24.632Z,4.32
2023-04-14T18:20:55.768Z,5.00
2023-04-14T18:23:25.581Z,3.00
2023-04-14T18:28:39.084Z,4.78
2023-04-14T18:31:09.324Z,4.35
2023-04-14T18:33:40.307Z,4.68
2023-04-14T18:36:10.310Z,6.72
2023-04-14T18:38:40.133Z,5.20
2023-04-14T18:41:10.425Z,3.60
2023-04-14T18:43:42.838Z,6.05
2023-04-14T18:46:12.794Z,3.60
2023-04-14T18:48:43.281Z,5.75
2023-04-14T18:51:13.201Z,3.88
2023-04-14T18:53:45.319Z,5.07
2023-04-14T18:56:15.679Z,7.93
2023-04-14T18:58:48.115Z,6.45
2023-04-14T19:01:18.430Z,5.72
2023-04-14T19:03:48.384Z,5.20
2023-04-14T19:06:18.349Z,5.05
2023-04-14T19:08:48.274Z,8.77
2023-04-14T19:11:18.166Z,6.70
2023-04-14T19:13:51.764Z,4.70
2023-04-14T19:16:22.747Z,4.37
2023-04-14T19:18:52.633Z,13.40
2023-04-14T19:21:22.540Z,6.30
2023-04-14T19:23:54.519Z,5.05
2023-04-14T19:26:24.482Z,5.43
2023-04-14T19:28:58.900Z,8.13
2023-04-14T19:31:28.921Z,8.23
2023-04-14T19:33:59.085Z,6.25
2023-04-14T19:36:29.506Z,5.75
2023-04-14T19:38:59.770Z,5.13
2023-04-14T19:41:29.993Z,7.00
2023-04-14T19:44:04.065Z,6.47
2023-04-14T19:46:35.796Z,6.97
2023-04-14T19:49:05.788Z,7.55
2023-04-14T19:51:36.693Z,5.85
2023-04-14T19:54:07.415Z,4.47
2023-04-14T19:56:38.006Z,6.15
2023-04-14T19:59:10.489Z,9.68
2023-04-14T20:01:41.105Z,2.92
2023-04-14T20:04:12.352Z,6.80
2023-04-14T20:06:42.959Z,4.68
2023-04-14T20:09:12.875Z,10.27
2023-04-14T20:11:42.757Z,5.45
2023-04-14T20:14:16.250Z,6.78
2023-04-14T20:16:46.159Z,5.93
2023-04-14T20:19:16.246Z,6.45
2023-04-14T20:21:46.465Z,9.45
2023-04-14T20:24:16.339Z,7.35
2023-04-14T20:26:46.657Z,8.52
2023-04-14T20:29:19.684Z,7.50
2023-04-14T20:31:50.202Z,8.30
2023-04-14T20:34:20.127Z,9.52
2023-04-14T20:36:53.081Z,9.13
2023-04-14T20:39:23.110Z,5.22
2023-04-14T20:41:52.975Z,7.95
2023-04-14T20:44:25.434Z,7.05
2023-04-14T20:46:55.622Z,8.27
2023-04-14T20:49:26.083Z,9.32
2023-04-14T20:51:57.713Z,6.45
2023-04-14T20:54:27.853Z,9.13
2023-04-14T20:56:57.894Z,9.50
2023-04-14T20:59:30.324Z,9.02
2023-04-14T21:02:01.569Z,6.97
2023-04-14T21:04:32.499Z,10.88
2023-04-14T21:07:02.429Z,8.15
2023-04-14T21:09:32.606Z,10.40
2023-04-14T21:12:14.696Z,9.60
2023-04-14T21:15:41.335Z,12.73
2023-04-14T21:17:38.932Z,13.63
2023-04-14T21:20:10.960Z,10.57
2023-04-14T21:22:40.931Z,8.43
2023-04-14T21:25:11.566Z,9.27
2023-04-14T21:27:41.734Z,6.85
2023-04-14T21:30:14.534Z,8.88
2023-04-14T21:32:45.550Z,8.55
2023-04-14T21:35:15.522Z,12.02
2023-04-14T21:37:46.172Z,10.55
2023-04-14T21:40:16.070Z,9.93
2023-04-14T21:42:45.993Z,8.90
2023-04-14T21:45:18.681Z,9.77
2023-04-14T21:47:48.515Z,9.02
2023-04-14T21:50:18.489Z,9.48
2023-04-14T21:52:48.325Z,7.65
2023-04-14T21:55:18.372Z,10.27
2023-04-14T21:57:49.940Z,8.35
2023-04-14T22:00:26.256Z,9.23
2023-04-14T22:02:56.666Z,11.48
2023-04-14T22:05:26.625Z,10.65
2023-04-14T22:07:56.520Z,8.18
2023-04-14T22:10:31.942Z,13.18
2023-04-14T22:13:03.133Z,12.60
2023-04-14T22:15:35.581Z,14.18
2023-04-14T22:18:05.454Z,7.45
2023-04-14T22:20:35.298Z,11.00
2023-04-14T22:23:05.076Z,11.02
2023-04-14T22:25:34.982Z,11.48
2023-04-14T22:28:04.832Z,8.82
2023-04-14T22:30:37.710Z,9.02
2023-04-14T22:33:07.815Z,10.65
2023-04-14T22:35:37.677Z,11.98
2023-04-14T22:38:07.646Z,14.00
2023-04-14T22:40:37.513Z,9.57
2023-04-14T22:43:08.960Z,9.48
2023-04-14T22:45:42.852Z,16.48
2023-04-14T22:48:14.706Z,10.80
2023-04-14T22:50:44.742Z,13.38
2023-04-14T22:53:14.647Z,11.05
2023-04-14T22:55:45.787Z,9.20
2023-04-14T22:58:17.891Z,9.90
2023-04-14T23:00:50.382Z,9.85
2023-04-14T23:03:20.553Z,12.38
2023-04-14T23:05:52.023Z,14.65
2023-04-14T23:08:22.179Z,11.65
2023-04-14T23:10:52.272Z,16.42
2023-04-14T23:13:22.341Z,11.80
2023-04-14T23:15:54.895Z,13.43
2023-04-14T23:18:27.400Z,11.15
2023-04-14T23:20:57.532Z,9.05
2023-04-14T23:23:27.534Z,13.05
2023-04-14T23:25:57.840Z,9.07
2023-04-14T23:28:27.786Z,9.57
2023-04-14T23:31:00.338Z,12.13
2023-04-14T23:33:30.330Z,10.57
2023-04-14T23:36:00.207Z,21.92
2023-04-14T23:38:30.033Z,15.68
2023-04-14T23:41:00.510Z,10.65
2023-04-14T23:43:31.171Z,10.60
2023-04-14T23:46:03.576Z,11.70
2023-04-14T23:48:33.429Z,14.30
2023-04-14T23:51:16.562Z,12.75
2023-04-14T23:53:51.887Z,12.52
2023-04-14T23:56:21.838Z,11.43
2023-04-14T23:58:52.175Z,10.15
